sensor_id;sensor_type;location;lat;lon;timestamp;P1;durP1;ratioP1;P2;durP2;ratioP2
15557;SDS011;7880;50.110;9.372;2023-02-05T00:00:54;3.100000000000001;;;1.3000000000000003;;
15557;SDS011;7880;50.110;9.372;2023-02-05T00:05:57;2.0;;;1.3000000000000003;;
15557;SDS011;7880;50.110;9.372;2023-02-05T00:11:08;0.8;;;0.8;;
15557;SDS011;7880;50.110;9.372;2023-02-05T00:16:07;3.1230769230769226;;;0.9000000000000002;;
15557;SDS011;7880;50.110;9.372;2023-02-05T00:21:15;1.7615384615384615;;;1.0999999999999999;;
15557;SDS011;7880;50.110;9.372;2023-02-05T00:26:19;1.4615384615384612;;;1.2615384615384615;;
15557;SDS011;7880;50.110;9.372;2023-02-05T00:31:22;1.2615384615384615;;;1.0;;
15557;SDS011;7880;50.110;9.372;2023-02-05T00:36:25;0.7;;;0.7;;
15557;SDS011;7880;50.110;9.372;2023-02-05T00:41:29;1.1615384615384614;;;1.0615384615384615;;
15557;SDS011;7880;50.110;9.372;2023-02-05T00:46:35;1.0999999999999999;;;0.9000000000000002;;
15557;SDS011;7880;50.110;9.372;2023-02-05T00:51:40;0.9000000000000002;;;0.9000000000000002;;
15557;SDS011;7880;50.110;9.372;2023-02-05T00:56:42;2.2615384615384615;;;1.0999999999999999;;
15557;SDS011;7880;50.110;9.372;2023-02-05T01:01:46;1.861538461538462;;;1.1615384615384614;;
15557;SDS011;7880;50.110;9.372;2023-02-05T01:06:59;1.1384615384615382;;;1.0384615384615383;;
15557;SDS011;7880;50.110;9.372;2023-02-05T01:11:53;1.0692307692307692;;;0.9000000000000002;;
15557;SDS011;7880;50.110;9.372;2023-02-05T01:16:57;2.269230769230769;;;1.5;;
15557;SDS011;7880;50.110;9.372;2023-02-05T01:22:01;1.1384615384615382;;;0.7;;
15557;SDS011;7880;50.110;9.372;2023-02-05T01:27:07;3.1230769230769226;;;1.1615384615384614;;
15557;SDS011;7880;50.110;9.372;2023-02-05T01:32:12;0.9384615384615386;;;0.8;;
15557;SDS011;7880;50.110;9.372;2023-02-05T01:37:21;1.6999999999999995;;;1.0;;
15557;SDS011;7880;50.110;9.372;2023-02-05T01:42:26;1.6999999999999995;;;1.3000000000000003;;
15557;SDS011;7880;50.110;9.372;2023-02-05T01:47:31;2.0769230769230766;;;1.0384615384615383;;
15557;SDS011;7880;50.110;9.372;2023-02-05T01:52:35;1.1999999999999997;;;1.0999999999999999;;
15557;SDS011;7880;50.110;9.372;2023-02-05T01:57:39;1.1615384615384614;;;0.9615384615384617;;
15557;SDS011;7880;50.110;9.372;2023-02-05T02:02:43;1.3000000000000003;;;1.0;;
15557;SDS011;7880;50.110;9.372;2023-02-05T02:07:46;4.761538461538462;;;1.2384615384615385;;
15557;SDS011;7880;50.110;9.372;2023-02-05T02:12:50;4.061538461538462;;;1.6;;
15557;SDS011;7880;50.110;9.372;2023-02-05T02:18:25;1.5;;;0.9000000000000002;;
15557;SDS011;7880;50.110;9.372;2023-02-05T02:23:09;1.146153846153846;;;1.0461538461538462;;
15557;SDS011;7880;50.110;9.372;2023-02-05T02:28:09;2.661538461538462;;;0.8384615384615385;;
15557;SDS011;7880;50.110;9.372;2023-02-05T02:33:16;1.0307692307692309;;;0.9000000000000002;;
15557;SDS011;7880;50.110;9.372;2023-02-05T02:38:20;1.0384615384615383;;;0.9000000000000002;;
15557;SDS011;7880;50.110;9.372;2023-02-05T02:43:40;4.238461538461538;;;0.9384615384615386;;
15557;SDS011;7880;50.110;9.372;2023-02-05T02:48:28;3.3615384615384603;;;1.4;;
15557;SDS011;7880;50.110;9.372;2023-02-05T02:53:33;2.315384615384615;;;1.3000000000000003;;
15557;SDS011;7880;50.110;9.372;2023-02-05T02:58:36;1.361538461538462;;;0.8;;
15557;SDS011;7880;50.110;9.372;2023-02-05T03:03:41;3.3384615384615377;;;1.3000000000000003;;
15557;SDS011;7880;50.110;9.372;2023-02-05T03:08:46;1.8999999999999997;;;0.9000000000000002;;
15557;SDS011;7880;50.110;9.372;2023-02-05T03:13:48;2.3615384615384616;;;1.0999999999999999;;
15557;SDS011;7880;50.110;9.372;2023-02-05T03:19:05;1.961538461538461;;;1.3000000000000003;;
15557;SDS011;7880;50.110;9.372;2023-02-05T03:23:56;1.4;;;1.0999999999999999;;
15557;SDS011;7880;50.110;9.372;2023-02-05T03:29:07;1.4384615384615387;;;1.0384615384615383;;
15557;SDS011;7880;50.110;9.372;2023-02-05T03:34:08;2.8615384615384607;;;1.3000000000000003;;
15557;SDS011;7880;50.110;9.372;2023-02-05T03:39:13;2.038461538461539;;;1.3384615384615384;;
15557;SDS011;7880;50.110;9.372;2023-02-05T03:44:19;2.4384615384615382;;;1.1384615384615382;;
15557;SDS011;7880;50.110;9.372;2023-02-05T03:49:18;1.7384615384615385;;;1.4384615384615387;;
15557;SDS011;7880;50.110;9.372;2023-02-05T03:54:25;2.1000000000000005;;;1.1999999999999997;;
15557;SDS011;7880;50.110;9.372;2023-02-05T03:59:28;1.1999999999999997;;;1.0999999999999999;;
15557;SDS011;7880;50.110;9.372;2023-02-05T04:04:38;1.8000000000000005;;;1.3000000000000003;;
15557;SDS011;7880;50.110;9.372;2023-02-05T04:09:38;1.6615384615384619;;;1.2615384615384615;;
15557;SDS011;7880;50.110;9.372;2023-02-05T04:14:42;2.9230769230769225;;;1.4;;
15557;SDS011;7880;50.110;9.372;2023-02-05T04:19:46;3.7000000000000006;;;1.4384615384615387;;
15557;SDS011;7880;50.110;9.372;2023-02-05T04:24:48;2.1999999999999997;;;1.5;;
15557;SDS011;7880;50.110;9.372;2023-02-05T04:29:52;1.5;;;1.3000000000000003;;
15557;SDS011;7880;50.110;9.372;2023-02-05T04:34:57;1.961538461538461;;;1.1999999999999997;;
15557;SDS011;7880;50.110;9.372;2023-02-05T04:40:03;3.7692307692307705;;;1.3230769230769235;;
15557;SDS011;7880;50.110;9.372;2023-02-05T04:45:09;2.0615384615384618;;;1.361538461538462;;
15557;SDS011;7880;50.110;9.372;2023-02-05T04:50:12;4.823076923076924;;;2.1000000000000005;;
15557;SDS011;7880;50.110;9.372;2023-02-05T04:55:15;3.923076923076922;;;2.461538461538461;;
15557;SDS011;7880;50.110;9.372;2023-02-05T05:00:19;2.8615384615384607;;;1.961538461538461;;
15557;SDS011;7880;50.110;9.372;2023-02-05T05:05:22;3.423076923076922;;;1.8999999999999997;;
15557;SDS011;7880;50.110;9.372;2023-02-05T05:10:26;3.2999999999999994;;;2.3999999999999995;;
15557;SDS011;7880;50.110;9.372;2023-02-05T05:15:29;3.0615384615384618;;;2.0615384615384618;;
15557;SDS011;7880;50.110;9.372;2023-02-05T05:20:35;3.2615384615384633;;;2.3000000000000003;;
15557;SDS011;7880;50.110;9.372;2023-02-05T05:25:40;2.4384615384615382;;;2.1999999999999997;;
15557;SDS011;7880;50.110;9.372;2023-02-05T05:30:43;2.2769230769230764;;;2.038461538461539;;
15557;SDS011;7880;50.110;9.372;2023-02-05T05:35:47;3.853846153846154;;;2.661538461538462;;
15557;SDS011;7880;50.110;9.372;2023-02-05T05:47:39;4.299999999999999;;;2.6000000000000005;;
15557;SDS011;7880;50.110;9.372;2023-02-05T05:52:46;2.976923076923077;;;2.2384615384615385;;
15557;SDS011;7880;50.110;9.372;2023-02-05T05:57:51;3.9692307692307685;;;3.0;;
15557;SDS011;7880;50.110;9.372;2023-02-05T06:02:53;4.3999999999999995;;;2.6000000000000005;;
15557;SDS011;7880;50.110;9.372;2023-02-05T06:07:57;2.7615384615384624;;;2.3999999999999995;;
15557;SDS011;7880;50.110;9.372;2023-02-05T06:13:01;4.5;;;2.7;;
15557;SDS011;7880;50.110;9.372;2023-02-05T06:18:05;4.153846153846153;;;2.4384615384615382;;
15557;SDS011;7880;50.110;9.372;2023-02-05T06:23:08;2.953846153846155;;;2.538461538461539;;
15557;SDS011;7880;50.110;9.372;2023-02-05T06:28:17;3.100000000000001;;;2.7;;
15557;SDS011;7880;50.110;9.372;2023-02-05T06:33:22;3.4384615384615382;;;2.6769230769230767;;
15557;SDS011;7880;50.110;9.372;2023-02-05T06:38:25;4.461538461538461;;;2.899999999999999;;
15557;SDS011;7880;50.110;9.372;2023-02-05T06:43:34;3.038461538461539;;;2.7384615384615376;;
15557;SDS011;7880;50.110;9.372;2023-02-05T06:48:36;4.038461538461538;;;3.0384615384615383;;
15557;SDS011;7880;50.110;9.372;2023-02-05T06:53:39;2.715384615384615;;;2.476923076923077;;
15557;SDS011;7880;50.110;9.372;2023-02-05T06:58:48;3.661538461538462;;;2.5;;
15557;SDS011;7880;50.110;9.372;2023-02-05T07:03:48;3.946153846153845;;;3.223076923076924;;
15557;SDS011;7880;50.110;9.372;2023-02-05T07:08:52;4.299999999999999;;;2.2384615384615385;;
15557;SDS011;7880;50.110;9.372;2023-02-05T07:13:59;4.023076923076923;;;2.661538461538462;;
15557;SDS011;7880;50.110;9.372;2023-02-05T07:19:06;2.7;;;1.8999999999999997;;
15557;SDS011;7880;50.110;9.372;2023-02-05T07:24:11;7.684615384615384;;;2.7384615384615376;;
15557;SDS011;7880;50.110;9.372;2023-02-05T07:29:12;4.523076923076923;;;2.6000000000000005;;
15557;SDS011;7880;50.110;9.372;2023-02-05T07:34:21;4.1000000000000005;;;3.100000000000001;;
15557;SDS011;7880;50.110;9.372;2023-02-05T07:39:01;5.2846153846153845;;;3.2;;
15557;SDS011;7880;50.110;9.372;2023-02-05T07:44:06;7.9769230769230735;;;4.438461538461538;;
15557;SDS011;7880;50.110;9.372;2023-02-05T07:49:10;8.746153846153847;;;3.161538461538462;;
15557;SDS011;7880;50.110;9.372;2023-02-05T07:54:16;7.076923076923078;;;2.899999999999999;;
15557;SDS011;7880;50.110;9.372;2023-02-05T07:59:17;6.130769230769232;;;2.7307692307692295;;
15557;SDS011;7880;50.110;9.372;2023-02-05T08:04:23;7.646153846153847;;;4.061538461538462;;
15557;SDS011;7880;50.110;9.372;2023-02-05T08:09:28;5.261538461538462;;;3.5;;
15557;SDS011;7880;50.110;9.372;2023-02-05T08:14:33;3.6307692307692303;;;2.6769230769230767;;
15557;SDS011;7880;50.110;9.372;2023-02-05T08:19:38;3.7999999999999994;;;3.2;;
15557;SDS011;7880;50.110;9.372;2023-02-05T08:24:41;4.86153846153846;;;3.100000000000001;;
15557;SDS011;7880;50.110;9.372;2023-02-05T08:29:45;4.299999999999999;;;3.2;;
15557;SDS011;7880;50.110;9.372;2023-02-05T08:34:49;5.5;;;3.5;;
15557;SDS011;7880;50.110;9.372;2023-02-05T08:39:53;10.099999999999998;;;4.238461538461538;;
15557;SDS011;7880;50.110;9.372;2023-02-05T08:44:59;4.700000000000001;;;3.7000000000000006;;
15557;SDS011;7880;50.110;9.372;2023-02-05T08:50:11;5.038461538461538;;;3.9384615384615382;;
15557;SDS011;7880;50.110;9.372;2023-02-05T08:55:08;5.1692307692307695;;;3.6692307692307695;;
15557;SDS011;7880;50.110;9.372;2023-02-05T09:00:12;5.200000000000001;;;3.899999999999999;;
15557;SDS011;7880;50.110;9.372;2023-02-05T09:05:21;7.061538461538462;;;5.961538461538463;;
15557;SDS011;7880;50.110;9.372;2023-02-05T09:10:22;6.823076923076924;;;5.161538461538461;;
15557;SDS011;7880;50.110;9.372;2023-02-05T09:15:30;5.215384615384616;;;4.253846153846154;;
15557;SDS011;7880;50.110;9.372;2023-02-05T09:20:28;6.200000000000002;;;4.8999999999999995;;
15557;SDS011;7880;50.110;9.372;2023-02-05T09:25:35;7.738461538461538;;;4.700000000000001;;
15557;SDS011;7880;50.110;9.372;2023-02-05T09:30:35;8.700000000000001;;;4.938461538461538;;
15557;SDS011;7880;50.110;9.372;2023-02-05T09:35:46;8.061538461538461;;;5.0;;
15557;SDS011;7880;50.110;9.372;2023-02-05T09:40:49;5.384615384615382;;;4.5076923076923086;;
15557;SDS011;7880;50.110;9.372;2023-02-05T09:45:54;6.700000000000002;;;5.1000000000000005;;
15557;SDS011;7880;50.110;9.372;2023-02-05T09:50:58;6.5384615384615365;;;4.700000000000001;;
15557;SDS011;7880;50.110;9.372;2023-02-05T09:56:00;6.5384615384615365;;;4.938461538461538;;
15557;SDS011;7880;50.110;9.372;2023-02-05T10:01:12;6.0;;;4.938461538461538;;
15557;SDS011;7880;50.110;9.372;2023-02-05T10:06:18;7.400000000000001;;;4.961538461538462;;
15557;SDS011;7880;50.110;9.372;2023-02-05T10:11:18;8.092307692307692;;;4.93076923076923;;
15557;SDS011;7880;50.110;9.372;2023-02-05T10:16:33;6.5;;;5.238461538461538;;
15557;SDS011;7880;50.110;9.372;2023-02-05T10:21:48;6.900000000000001;;;5.238461538461538;;
15557;SDS011;7880;50.110;9.372;2023-02-05T10:26:42;6.169230769230771;;;5.16923076923077;;
15557;SDS011;7880;50.110;9.372;2023-02-05T10:31:49;6.907692307692311;;;4.676923076923076;;
15557;SDS011;7880;50.110;9.372;2023-02-05T10:36:50;8.792307692307691;;;5.446153846153847;;
15557;SDS011;7880;50.110;9.372;2023-02-05T10:41:55;7.353846153846153;;;5.176923076923076;;
15557;SDS011;7880;50.110;9.372;2023-02-05T10:46:59;9.45384615384615;;;5.238461538461538;;
15557;SDS011;7880;50.110;9.372;2023-02-05T10:52:13;6.900000000000001;;;4.838461538461538;;
15557;SDS011;7880;50.110;9.372;2023-02-05T10:57:10;7.761538461538462;;;5.361538461538459;;
15557;SDS011;7880;50.110;9.372;2023-02-05T11:02:11;9.238461538461541;;;5.976923076923075;;
15557;SDS011;7880;50.110;9.372;2023-02-05T11:07:23;8.22307692307692;;;5.861538461538459;;
15557;SDS011;7880;50.110;9.372;2023-02-05T11:12:25;8.830769230769231;;;6.599999999999999;;
15557;SDS011;7880;50.110;9.372;2023-02-05T11:17:30;7.553846153846152;;;5.676923076923076;;
15557;SDS011;7880;50.110;9.372;2023-02-05T11:22:35;7.061538461538462;;;5.061538461538462;;
15557;SDS011;7880;50.110;9.372;2023-02-05T11:27:39;8.738461538461538;;;5.8769230769230765;;
15557;SDS011;7880;50.110;9.372;2023-02-05T11:32:42;9.523076923076925;;;7.16153846153846;;
15557;SDS011;7880;50.110;9.372;2023-02-05T11:37:47;23.423076923076927;;;15.161538461538461;;
15557;SDS011;7880;50.110;9.372;2023-02-05T11:42:56;11.176923076923078;;;8.315384615384616;;
15557;SDS011;7880;50.110;9.372;2023-02-05T11:48:01;16.48461538461538;;;8.853846153846153;;
15557;SDS011;7880;50.110;9.372;2023-02-05T11:53:17;8.515384615384617;;;6.715384615384618;;
15557;SDS011;7880;50.110;9.372;2023-02-05T11:58:17;8.29230769230769;;;5.438461538461538;;
15557;SDS011;7880;50.110;9.372;2023-02-05T12:03:14;8.061538461538461;;;6.361538461538459;;
15557;SDS011;7880;50.110;9.372;2023-02-05T12:08:23;7.33846153846154;;;5.738461538461538;;
15557;SDS011;7880;50.110;9.372;2023-02-05T12:13:23;10.299999999999999;;;7.661538461538461;;
15557;SDS011;7880;50.110;9.372;2023-02-05T12:18:29;9.700000000000001;;;5.938461538461538;;
15557;SDS011;7880;50.110;9.372;2023-02-05T12:23:59;8.330769230769231;;;6.338461538461539;;
15557;SDS011;7880;50.110;9.372;2023-02-05T12:28:49;10.023076923076925;;;7.4615384615384635;;
15557;SDS011;7880;50.110;9.372;2023-02-05T12:33:57;11.084615384615388;;;6.299999999999998;;
15557;SDS011;7880;50.110;9.372;2023-02-05T12:39:08;7.261538461538462;;;5.299999999999999;;
15557;SDS011;7880;50.110;9.372;2023-02-05T12:43:14;8.261538461538462;;;6.646153846153845;;
15557;SDS011;7880;50.110;9.372;2023-02-05T12:48:20;5.799999999999998;;;5.200000000000001;;
15557;SDS011;7880;50.110;9.372;2023-02-05T12:53:44;7.261538461538462;;;5.338461538461539;;
15557;SDS011;7880;50.110;9.372;2023-02-05T12:58:35;8.738461538461538;;;5.138461538461541;;
15557;SDS011;7880;50.110;9.372;2023-02-05T13:03:41;6.5;;;4.8999999999999995;;
15557;SDS011;7880;50.110;9.372;2023-02-05T13:08:42;6.923076923076922;;;5.4;;
15557;SDS011;7880;50.110;9.372;2023-02-05T13:13:49;8.923076923076922;;;5.4;;
15557;SDS011;7880;50.110;9.372;2023-02-05T13:18:54;8.72307692307692;;;6.0;;
15557;SDS011;7880;50.110;9.372;2023-02-05T13:31:01;7.761538461538464;;;5.061538461538462;;
15557;SDS011;7880;50.110;9.372;2023-02-05T13:35:56;8.869230769230768;;;6.223076923076925;;
15557;SDS011;7880;50.110;9.372;2023-02-05T13:41:08;12.099999999999996;;;8.738461538461538;;
15557;SDS011;7880;50.110;9.372;2023-02-05T13:47:23;32.284615384615385;;;15.438461538461542;;
15557;SDS011;7880;50.110;9.372;2023-02-05T13:52:21;12.353846153846158;;;8.153846153846152;;
15557;SDS011;7880;50.110;9.372;2023-02-05T13:57:37;8.538461538461537;;;5.838461538461539;;
15557;SDS011;7880;50.110;9.372;2023-02-05T14:03:04;8.799999999999999;;;6.638461538461541;;
15557;SDS011;7880;50.110;9.372;2023-02-05T14:08:18;7.953846153846154;;;5.615384615384614;;
15557;SDS011;7880;50.110;9.372;2023-02-05T14:13:11;9.738461538461541;;;6.4;;
15557;SDS011;7880;50.110;9.372;2023-02-05T14:18:44;7.66153846153846;;;6.038461538461537;;
15557;SDS011;7880;50.110;9.372;2023-02-05T14:24:23;8.553846153846154;;;6.515384615384615;;
15557;SDS011;7880;50.110;9.372;2023-02-05T14:29:17;10.476923076923075;;;7.076923076923078;;
15557;SDS011;7880;50.110;9.372;2023-02-05T14:34:56;18.56153846153846;;;12.738461538461543;;
15557;SDS011;7880;50.110;9.372;2023-02-05T14:39:45;12.2;;;7.9769230769230735;;
15557;SDS011;7880;50.110;9.372;2023-02-05T14:44:41;11.0;;;9.038461538461537;;
15557;SDS011;7880;50.110;9.372;2023-02-05T14:49:46;8.653846153846157;;;7.138461538461541;;
15557;SDS011;7880;50.110;9.372;2023-02-05T14:55:24;8.638461538461538;;;6.638461538461541;;
15557;SDS011;7880;50.110;9.372;2023-02-05T15:00:31;8.584615384615388;;;6.700000000000002;;
15557;SDS011;7880;50.110;9.372;2023-02-05T15:05:15;8.799999999999999;;;6.438461538461538;;
15557;SDS011;7880;50.110;9.372;2023-02-05T15:10:23;10.599999999999998;;;7.0;;
15557;SDS011;7880;50.110;9.372;2023-02-05T15:15:28;11.792307692307691;;;7.0;;
15557;SDS011;7880;50.110;9.372;2023-02-05T15:20:30;9.36153846153846;;;6.700000000000002;;
15557;SDS011;7880;50.110;9.372;2023-02-05T15:25:37;8.0;;;6.415384615384614;;
15557;SDS011;7880;50.110;9.372;2023-02-05T15:31:03;15.523076923076925;;;8.299999999999999;;
15557;SDS011;7880;50.110;9.372;2023-02-05T15:35:49;10.246153846153847;;;6.923076923076922;;
15557;SDS011;7880;50.110;9.372;2023-02-05T15:40:51;9.038461538461537;;;6.738461538461538;;
15557;SDS011;7880;50.110;9.372;2023-02-05T15:45:57;8.761538461538462;;;6.223076923076921;;
15557;SDS011;7880;50.110;9.372;2023-02-05T15:51:16;8.16153846153846;;;5.799999999999998;;
15557;SDS011;7880;50.110;9.372;2023-02-05T15:56:07;10.161538461538461;;;6.4615384615384635;;
15557;SDS011;7880;50.110;9.372;2023-02-05T16:01:17;5.476923076923075;;;4.661538461538462;;
15557;SDS011;7880;50.110;9.372;2023-02-05T16:06:17;7.7230769230769205;;;5.261538461538462;;
15557;SDS011;7880;50.110;9.372;2023-02-05T16:11:25;6.900000000000001;;;4.8999999999999995;;
15557;SDS011;7880;50.110;9.372;2023-02-05T16:16:26;8.13846153846154;;;5.838461538461539;;
15557;SDS011;7880;50.110;9.372;2023-02-05T16:21:44;8.0;;;5.338461538461539;;
15557;SDS011;7880;50.110;9.372;2023-02-05T16:26:37;9.046153846153846;;;6.146153846153846;;
15557;SDS011;7880;50.110;9.372;2023-02-05T16:31:38;8.030769230769229;;;5.961538461538459;;
15557;SDS011;7880;50.110;9.372;2023-02-05T16:36:45;6.961538461538459;;;5.130769230769232;;
15557;SDS011;7880;50.110;9.372;2023-02-05T16:41:59;6.338461538461539;;;4.8769230769230765;;
15557;SDS011;7880;50.110;9.372;2023-02-05T16:47:03;7.0384615384615365;;;5.700000000000002;;
15557;SDS011;7880;50.110;9.372;2023-02-05T16:52:24;9.953846153846156;;;6.599999999999999;;
15557;SDS011;7880;50.110;9.372;2023-02-05T16:57:08;31.707692307692312;;;12.430769230769233;;
15557;SDS011;7880;50.110;9.372;2023-02-05T17:02:15;15.623076923076924;;;8.93846153846154;;
15557;SDS011;7880;50.110;9.372;2023-02-05T17:07:16;24.24615384615385;;;10.93846153846154;;
15557;SDS011;7880;50.110;9.372;2023-02-05T17:12:23;14.346153846153843;;;7.861538461538459;;
15557;SDS011;7880;50.110;9.372;2023-02-05T17:17:44;22.984615384615385;;;11.276923076923081;;
15557;SDS011;7880;50.110;9.372;2023-02-05T17:22:34;13.838461538461537;;;8.799999999999997;;
15557;SDS011;7880;50.110;9.372;2023-02-05T17:27:38;22.707692307692312;;;12.246153846153849;;
15557;SDS011;7880;50.110;9.372;2023-02-05T17:32:46;9.799999999999999;;;7.0384615384615365;;
15557;SDS011;7880;50.110;9.372;2023-02-05T17:37:46;9.615384615384617;;;6.153846153846155;;
15557;SDS011;7880;50.110;9.372;2023-02-05T17:42:51;11.038461538461537;;;8.299999999999999;;
15557;SDS011;7880;50.110;9.372;2023-02-05T17:48:03;17.32307692307692;;;8.799999999999997;;
15557;SDS011;7880;50.110;9.372;2023-02-05T17:53:26;14.961538461538462;;;7.8230769230769255;;
15557;SDS011;7880;50.110;9.372;2023-02-05T17:58:26;6.676923076923076;;;5.799999999999998;;
15557;SDS011;7880;50.110;9.372;2023-02-05T18:03:31;6.599999999999999;;;5.538461538461537;;
15557;SDS011;7880;50.110;9.372;2023-02-05T18:08:37;7.423076923076922;;;5.861538461538459;;
15557;SDS011;7880;50.110;9.372;2023-02-05T18:13:45;10.83076923076923;;;6.9769230769230735;;
15557;SDS011;7880;50.110;9.372;2023-02-05T18:18:48;8.438461538461539;;;6.83846153846154;;
15557;SDS011;7880;50.110;9.372;2023-02-05T18:23:51;8.884615384615385;;;5.261538461538462;;
15557;SDS011;7880;50.110;9.372;2023-02-05T18:28:53;9.69230769230769;;;6.846153846153844;;
15557;SDS011;7880;50.110;9.372;2023-02-05T18:33:56;9.784615384615384;;;6.361538461538459;;
15557;SDS011;7880;50.110;9.372;2023-02-05T18:39:02;11.153846153846157;;;7.215384615384618;;
15557;SDS011;7880;50.110;9.372;2023-02-05T18:44:05;30.630769230769236;;;12.761538461538457;;
15557;SDS011;7880;50.110;9.372;2023-02-05T18:49:10;13.923076923076927;;;7.900000000000001;;
15557;SDS011;7880;50.110;9.372;2023-02-05T18:54:14;10.323076923076922;;;7.061538461538462;;
15557;SDS011;7880;50.110;9.372;2023-02-05T18:59:20;11.599999999999996;;;7.200000000000002;;
15557;SDS011;7880;50.110;9.372;2023-02-05T19:04:24;7.438461538461538;;;5.638461538461541;;
15557;SDS011;7880;50.110;9.372;2023-02-05T19:09:28;13.06153846153846;;;7.361538461538459;;
15557;SDS011;7880;50.110;9.372;2023-02-05T19:14:31;11.93846153846154;;;7.715384615384618;;
15557;SDS011;7880;50.110;9.372;2023-02-05T19:19:36;12.938461538461537;;;8.176923076923078;;
15557;SDS011;7880;50.110;9.372;2023-02-05T19:24:57;9.423076923076923;;;6.4615384615384635;;
15557;SDS011;7880;50.110;9.372;2023-02-05T19:29:47;13.430769230769236;;;8.376923076923076;;
15557;SDS011;7880;50.110;9.372;2023-02-05T19:34:54;11.376923076923076;;;6.900000000000001;;
15557;SDS011;7880;50.110;9.372;2023-02-05T19:39:56;9.200000000000001;;;5.638461538461541;;
15557;SDS011;7880;50.110;9.372;2023-02-05T19:45:09;9.276923076923076;;;5.976923076923076;;
15557;SDS011;7880;50.110;9.372;2023-02-05T19:50:04;8.438461538461539;;;6.138461538461541;;
15557;SDS011;7880;50.110;9.372;2023-02-05T19:55:15;9.230769230769228;;;6.338461538461539;;
15557;SDS011;7880;50.110;9.372;2023-02-05T20:00:19;9.961538461538463;;;7.261538461538462;;
15557;SDS011;7880;50.110;9.372;2023-02-05T20:05:18;8.538461538461537;;;7.200000000000002;;
15557;SDS011;7880;50.110;9.372;2023-02-05T20:10:23;14.853846153846153;;;8.638461538461538;;
15557;SDS011;7880;50.110;9.372;2023-02-05T20:15:26;15.830769230769231;;;8.36153846153846;;
15557;SDS011;7880;50.110;9.372;2023-02-05T20:20:31;14.684615384615386;;;7.799999999999998;;
15557;SDS011;7880;50.110;9.372;2023-02-05T20:25:50;14.469230769230771;;;10.138461538461538;;
15557;SDS011;7880;50.110;9.372;2023-02-05T20:31:47;18.553846153846163;;;10.215384615384616;;
15557;SDS011;7880;50.110;9.372;2023-02-05T20:36:29;18.253846153846148;;;10.846153846153847;;
15557;SDS011;7880;50.110;9.372;2023-02-05T20:41:45;19.12307692307692;;;10.861538461538466;;
15557;SDS011;7880;50.110;9.372;2023-02-05T20:46:36;15.669230769230767;;;9.43846153846154;;
15557;SDS011;7880;50.110;9.372;2023-02-05T20:51:42;18.53846153846154;;;11.900000000000004;;
15557;SDS011;7880;50.110;9.372;2023-02-05T20:56:44;19.17692307692308;;;11.161538461538461;;
15557;SDS011;7880;50.110;9.372;2023-02-05T21:01:48;16.8;;;10.0;;
15557;SDS011;7880;50.110;9.372;2023-02-05T21:06:53;19.76153846153846;;;10.338461538461539;;
15557;SDS011;7880;50.110;9.372;2023-02-05T21:11:58;14.515384615384612;;;8.038461538461537;;
15557;SDS011;7880;50.110;9.372;2023-02-05T21:17:03;13.361538461538467;;;7.9615384615384635;;
15557;SDS011;7880;50.110;9.372;2023-02-05T21:22:06;15.192307692307692;;;9.038461538461537;;
15557;SDS011;7880;50.110;9.372;2023-02-05T21:27:10;16.153846153846157;;;9.423076923076923;;
15557;SDS011;7880;50.110;9.372;2023-02-05T21:32:13;10.815384615384618;;;7.415384615384612;;
15557;SDS011;7880;50.110;9.372;2023-02-05T21:37:17;11.861538461538466;;;8.66153846153846;;
15557;SDS011;7880;50.110;9.372;2023-02-05T21:42:23;16.861538461538466;;;10.476923076923075;;
15557;SDS011;7880;50.110;9.372;2023-02-05T21:47:25;12.0;;;7.238461538461538;;
15557;SDS011;7880;50.110;9.372;2023-02-05T21:52:35;12.392307692307693;;;8.176923076923076;;
15557;SDS011;7880;50.110;9.372;2023-02-05T21:57:34;14.238461538461545;;;9.599999999999998;;
15557;SDS011;7880;50.110;9.372;2023-02-05T22:02:41;8.200000000000001;;;5.338461538461539;;
15557;SDS011;7880;50.110;9.372;2023-02-05T22:07:46;7.076923076923078;;;4.838461538461538;;
15557;SDS011;7880;50.110;9.372;2023-02-05T22:12:51;11.361538461538466;;;6.761538461538462;;
15557;SDS011;7880;50.110;9.372;2023-02-05T22:17:55;12.415384615384612;;;8.238461538461538;;
15557;SDS011;7880;50.110;9.372;2023-02-05T22:23:01;10.723076923076919;;;6.299999999999998;;
15557;SDS011;7880;50.110;9.372;2023-02-05T22:28:15;11.615384615384617;;;8.176923076923076;;
15557;SDS011;7880;50.110;9.372;2023-02-05T22:33:09;10.376923076923076;;;7.515384615384615;;
15557;SDS011;7880;50.110;9.372;2023-02-05T22:38:19;13.069230769230764;;;7.492307692307692;;
15557;SDS011;7880;50.110;9.372;2023-02-05T22:43:21;15.199999999999998;;;8.099999999999998;;
15557;SDS011;7880;50.110;9.372;2023-02-05T22:48:23;9.376923076923076;;;6.276923076923079;;
15557;SDS011;7880;50.110;9.372;2023-02-05T22:53:28;8.999999999999996;;;5.976923076923076;;